createdAt,value
2019-03-22T00:00:20.707Z,99423.20
2019-03-22T00:02:50.242Z,99419.28
2019-03-22T00:05:19.706Z,99417.20
2019-03-22T00:07:49.187Z,99420.84
2019-03-22T00:10:18.653Z,99412.75
2019-03-22T00:12:48.132Z,99415.86
2019-03-22T00:15:17.622Z,99414.16
2019-03-22T00:17:47.093Z,99416.15
2019-03-22T00:20:16.643Z,99415.23
2019-03-22T00:22:46.133Z,99416.85
2019-03-22T00:25:15.607Z,99406.27
2019-03-22T00:27:45.107Z,99408.30
2019-03-22T00:30:14.781Z,99410.86
2019-03-22T00:32:44.230Z,99408.67
2019-03-22T00:35:13.858Z,99408.69
2019-03-22T00:37:43.341Z,99407.45
2019-03-22T00:40:13.247Z,99406.48
2019-03-22T00:42:42.743Z,99406.23
2019-03-22T00:45:12.666Z,99404.38
2019-03-22T00:47:42.139Z,99408.66
2019-03-22T00:50:13.411Z,99404.81
2019-03-22T00:52:42.916Z,99405.58
2019-03-22T00:55:12.916Z,99404.54
2019-03-22T00:57:42.384Z,99400.73
2019-03-22T01:00:14.574Z,99398.66
2019-03-22T01:02:44.146Z,99402.09
2019-03-22T01:05:13.750Z,99404.48
2019-03-22T01:07:44.177Z,99403.61
2019-03-22T01:10:14.601Z,99392.22
2019-03-22T01:12:44.138Z,99395.02
2019-03-22T01:15:14.977Z,99394.67
2019-03-22T01:17:44.466Z,99395.64
2019-03-22T01:20:14.588Z,99395.30
2019-03-22T01:22:44.329Z,99392.64
2019-03-22T01:25:13.938Z,99386.33
2019-03-22T01:27:43.426Z,99393.66
2019-03-22T01:30:17.884Z,99387.30
2019-03-22T01:32:47.351Z,99386.29
2019-03-22T01:35:16.911Z,99393.44
2019-03-22T01:37:46.395Z,99386.05
2019-03-22T01:40:17.502Z,99385.27
2019-03-22T01:42:47.032Z,99381.70
2019-03-22T01:45:17.113Z,99384.96
2019-03-22T01:47:46.597Z,99384.52
2019-03-22T01:50:17.988Z,99386.48
2019-03-22T01:52:47.549Z,99303.51
2019-03-22T01:55:17.089Z,99389.80
2019-03-22T01:57:53.063Z,99390.33
2019-03-22T02:00:18.811Z,99389.55
2019-03-22T02:02:48.320Z,99388.88
2019-03-22T02:05:17.955Z,99394.54
2019-03-22T02:07:47.441Z,99394.84
2019-03-22T02:10:17.048Z,99395.59
2019-03-22T02:12:46.606Z,99389.08
2019-03-22T02:15:17.312Z,99382.91
2019-03-22T02:17:46.854Z,99381.91
2019-03-22T02:20:17.772Z,99381.72
2019-03-22T02:22:47.269Z,99374.64
2019-03-22T02:25:16.982Z,99366.63
2019-03-22T02:27:46.550Z,99370.30
2019-03-22T02:30:18.599Z,99364.42
2019-03-22T02:32:48.081Z,99361.86
2019-03-22T02:35:28.347Z,99355.50
2019-03-22T02:37:48.760Z,99360.09
2019-03-22T02:40:18.253Z,99353.18
2019-03-22T02:42:47.720Z,99353.72
2019-03-22T02:45:17.276Z,99353.36
2019-03-22T02:47:46.830Z,99354.94
2019-03-22T02:50:19.131Z,99348.64
2019-03-22T02:52:48.084Z,99351.33
2019-03-22T02:55:17.608Z,99351.97
2019-03-22T02:57:47.165Z,99351.11
2019-03-22T03:00:18.259Z,99359.58
2019-03-22T03:02:47.764Z,99361.56
2019-03-22T03:05:17.477Z,99357.30
2019-03-22T03:07:47.037Z,99354.21
2019-03-22T03:10:17.266Z,99356.20
2019-03-22T03:12:46.941Z,99352.40
2019-03-22T03:15:17.942Z,99348.13
2019-03-22T03:17:47.511Z,99349.63
2019-03-22T03:20:19.122Z,99350.16
2019-03-22T03:22:48.672Z,99357.44
2019-03-22T03:25:18.393Z,99349.03
2019-03-22T03:27:48.022Z,99349.17
2019-03-22T03:30:20.994Z,99352.66
2019-03-22T03:32:50.518Z,99351.05
2019-03-22T03:35:20.289Z,99354.49
2019-03-22T03:37:49.820Z,99353.29
2019-03-22T03:40:19.509Z,99347.97
2019-03-22T03:42:49.058Z,99343.19
2019-03-22T03:45:33.663Z,99345.22
2019-03-22T03:48:08.434Z,99344.89
2019-03-22T03:50:38.124Z,99347.97
2019-03-22T03:53:07.858Z,99349.38
2019-03-22T03:55:37.399Z,99348.59
2019-03-22T03:58:07.017Z,99343.70
2019-03-22T04:00:36.599Z,99344.33
2019-03-22T04:03:06.308Z,99343.50
2019-03-22T04:05:35.778Z,99341.45
2019-03-22T04:08:05.611Z,99341.16
2019-03-22T04:10:35.237Z,99336.48
2019-03-22T04:13:04.898Z,99342.11
2019-03-22T04:15:34.446Z,99346.50
2019-03-22T04:18:03.997Z,99354.90
2019-03-22T04:20:33.467Z,99345.95
2019-03-22T04:23:02.964Z,99347.13
2019-03-22T04:25:32.413Z,99356.14
2019-03-22T04:28:01.913Z,99353.50
2019-03-22T04:30:31.408Z,99352.07
2019-03-22T04:33:00.895Z,99350.73
2019-03-22T04:35:30.375Z,99345.50
2019-03-22T04:37:59.859Z,99354.88
2019-03-22T04:40:30.476Z,99352.58
2019-03-22T04:43:00.086Z,99351.72
2019-03-22T04:45:31.815Z,99350.34
2019-03-22T04:48:23.775Z,99347.55
2019-03-22T04:50:56.041Z,99349.89
2019-03-22T04:53:27.802Z,99351.45
2019-03-22T04:56:03.032Z,99352.52
2019-03-22T04:58:34.160Z,99344.70
2019-03-22T05:01:04.883Z,99345.11
2019-03-22T05:03:35.306Z,99347.00
2019-03-22T05:06:06.567Z,99354.46
2019-03-22T05:08:39.397Z,99346.71
2019-03-22T05:11:11.844Z,99346.09
2019-03-22T05:13:44.043Z,99348.58
2019-03-22T05:16:15.351Z,99351.48
2019-03-22T05:18:47.976Z,99333.48
2019-03-22T05:21:19.406Z,99354.10
2019-03-22T05:23:49.825Z,99362.73
2019-03-22T05:26:21.134Z,99356.00
2019-03-22T05:28:51.263Z,99360.78
2019-03-22T05:31:33.472Z,99364.27
2019-03-22T05:34:02.975Z,99364.30
2019-03-22T05:36:32.453Z,99367.02
2019-03-22T05:39:01.929Z,99364.48
2019-03-22T05:41:31.424Z,99358.15
2019-03-22T05:44:00.897Z,99360.54
2019-03-22T05:46:30.366Z,99359.27
2019-03-22T05:48:59.859Z,99356.91
2019-03-22T05:51:29.336Z,99358.41
2019-03-22T05:53:58.811Z,99363.82
2019-03-22T05:56:28.307Z,99364.46
2019-03-22T05:58:57.768Z,99363.72
2019-03-22T06:01:27.246Z,99370.38
2019-03-22T06:03:56.744Z,99375.77
2019-03-22T06:06:26.228Z,99379.60
2019-03-22T06:08:55.696Z,99374.85
2019-03-22T06:11:25.192Z,99376.31
2019-03-22T06:13:54.665Z,99376.84
2019-03-22T06:16:24.134Z,99368.98
2019-03-22T06:18:53.633Z,99372.88
2019-03-22T06:21:23.102Z,99376.84
2019-03-22T06:23:52.662Z,99382.24
2019-03-22T06:26:22.142Z,99379.72
2019-03-22T06:28:51.714Z,99385.56
2019-03-22T06:31:21.258Z,99380.34
2019-03-22T06:33:50.732Z,99384.46
2019-03-22T06:36:20.219Z,99388.67
2019-03-22T06:38:49.704Z,99386.59
2019-03-22T06:41:19.178Z,99392.19
2019-03-22T06:43:48.655Z,99387.11
2019-03-22T06:46:18.142Z,99379.02
2019-03-22T06:48:47.634Z,99380.44
2019-03-22T06:51:17.109Z,99372.62
2019-03-22T06:53:46.585Z,99380.87
2019-03-22T06:56:16.086Z,99388.88
2019-03-22T06:58:45.622Z,99389.66
2019-03-22T07:01:15.111Z,99395.00
2019-03-22T07:03:44.600Z,99387.44
2019-03-22T07:06:14.077Z,99391.36
2019-03-22T07:08:43.596Z,99390.41
2019-03-22T07:11:13.051Z,99388.20
2019-03-22T07:13:42.522Z,99379.95
2019-03-22T07:16:12.010Z,99382.89
2019-03-22T07:18:41.488Z,99389.70
2019-03-22T07:21:10.976Z,99384.98
2019-03-22T07:23:40.446Z,99387.09
2019-03-22T07:26:09.941Z,99390.92
2019-03-22T07:28:39.412Z,99387.05
2019-03-22T07:31:08.989Z,99386.63
2019-03-22T07:33:38.479Z,99384.31
2019-03-22T07:36:07.951Z,99385.96
2019-03-22T07:38:37.484Z,99384.36
2019-03-22T07:41:06.957Z,99381.70
2019-03-22T07:43:36.446Z,99385.02
2019-03-22T07:46:05.919Z,99384.88
2019-03-22T07:48:35.415Z,99392.39
2019-03-22T07:51:04.983Z,99390.00
2019-03-22T07:53:34.477Z,99389.77
2019-03-22T07:56:04.098Z,99395.58
2019-03-22T07:58:33.578Z,99392.33
2019-03-22T08:01:03.091Z,99399.25
2019-03-22T08:03:32.563Z,99391.64
2019-03-22T08:06:02.043Z,99401.95
2019-03-22T08:08:31.527Z,99405.35
2019-03-22T08:11:01.005Z,99394.30
2019-03-22T08:13:30.503Z,99394.30
2019-03-22T08:16:00.207Z,99398.75
2019-03-22T08:18:29.757Z,99392.68
2019-03-22T08:20:59.332Z,99391.58
2019-03-22T08:23:28.880Z,99387.03
2019-03-22T08:25:58.380Z,99393.56
2019-03-22T08:28:28.013Z,99390.61
2019-03-22T08:30:57.658Z,99393.27
2019-03-22T08:33:27.220Z,99392.47
2019-03-22T08:35:56.716Z,99383.54
2019-03-22T08:38:26.215Z,99380.99
2019-03-22T08:40:55.758Z,99377.98
2019-03-22T08:43:25.241Z,99384.48
2019-03-22T08:45:54.737Z,99382.76
2019-03-22T08:48:24.292Z,99379.72
2019-03-22T08:50:53.916Z,99371.54
2019-03-22T08:53:23.529Z,99373.27
2019-03-22T08:55:53.045Z,99366.34
2019-03-22T08:58:22.543Z,99375.28
2019-03-22T09:00:57.356Z,99370.07
2019-03-22T09:03:23.283Z,99370.38
2019-03-22T09:05:52.797Z,99372.91
2019-03-22T09:08:22.293Z,99374.52
2019-03-22T09:10:51.806Z,99360.42
2019-03-22T09:13:21.380Z,99361.16
2019-03-22T09:15:50.886Z,99365.63
2019-03-22T09:18:20.405Z,99361.94
2019-03-22T09:20:49.904Z,99362.55
2019-03-22T09:23:19.397Z,99366.13
2019-03-22T09:25:48.991Z,99363.66
2019-03-22T09:28:18.502Z,99365.51
2019-03-22T09:30:48.016Z,99361.53
2019-03-22T09:33:17.511Z,99357.14
2019-03-22T09:35:47.027Z,99352.07
2019-03-22T09:38:16.583Z,99350.34
2019-03-22T09:40:46.095Z,99348.60
2019-03-22T09:43:15.658Z,99345.85
2019-03-22T09:45:45.483Z,99340.70
2019-03-22T09:48:15.163Z,99342.69
2019-03-22T09:50:44.697Z,99337.44
2019-03-22T09:53:14.197Z,99338.52
2019-03-22T09:55:43.687Z,99334.95
2019-03-22T09:58:13.204Z,99330.70
2019-03-22T10:00:42.860Z,99319.04
2019-03-22T10:03:12.388Z,99315.72
2019-03-22T10:05:42.060Z,99310.23
2019-03-22T10:08:11.627Z,99304.21
2019-03-22T10:10:41.147Z,99297.25
2019-03-22T10:13:10.673Z,99294.53
2019-03-22T10:15:40.146Z,99294.88
2019-03-22T10:18:09.672Z,99294.74
2019-03-22T10:20:39.134Z,99296.09
2019-03-22T10:23:08.607Z,99301.37
2019-03-22T10:25:38.100Z,99304.86
2019-03-22T10:28:07.594Z,99305.23
2019-03-22T10:30:37.155Z,99295.72
2019-03-22T10:33:06.638Z,99296.25
2019-03-22T10:35:36.184Z,99296.70
2019-03-22T10:38:15.324Z,99297.05
2019-03-22T10:40:37.338Z,99288.18
2019-03-22T10:43:06.895Z,99296.05
2019-03-22T10:45:36.373Z,99288.01
2019-03-22T10:48:05.922Z,99281.67
2019-03-22T10:50:35.462Z,99282.22
2019-03-22T10:53:04.931Z,99276.52
2019-03-22T10:55:35.654Z,99267.31
2019-03-22T10:58:19.762Z,99267.20
2019-03-22T11:00:36.620Z,99262.11
2019-03-22T11:03:06.118Z,99257.17
2019-03-22T11:05:35.874Z,99246.88
2019-03-22T11:08:05.438Z,99248.19
2019-03-22T11:10:34.931Z,99241.06
2019-03-22T11:13:04.574Z,99251.20
2019-03-22T11:15:34.073Z,99247.70
2019-03-22T11:18:03.529Z,99251.23
2019-03-22T11:20:33.026Z,99247.34
2019-03-22T11:23:02.499Z,99239.66
2019-03-22T11:25:31.980Z,99240.05
2019-03-22T11:28:01.475Z,99234.62
2019-03-22T11:30:31.298Z,99232.29
2019-03-22T11:33:01.072Z,99230.92
2019-03-22T11:35:30.532Z,99230.55
2019-03-22T11:38:00.009Z,99231.62
2019-03-22T11:40:29.577Z,99230.50
2019-03-22T11:43:08.265Z,99218.91
2019-03-22T11:45:30.274Z,99212.56
2019-03-22T11:48:00.641Z,99211.98
2019-03-22T11:50:30.344Z,99205.98
2019-03-22T11:52:59.843Z,99208.41
2019-03-22T11:55:29.349Z,99212.21
2019-03-22T11:57:58.837Z,99203.32
2019-03-22T12:00:28.657Z,99203.34
2019-03-22T12:02:58.149Z,99203.73
2019-03-22T12:05:27.702Z,99201.45
2019-03-22T12:07:57.248Z,99195.54
2019-03-22T12:10:26.898Z,99198.61
2019-03-22T12:12:56.367Z,99188.51
2019-03-22T12:15:25.917Z,99186.77
2019-03-22T12:17:55.417Z,99179.67
2019-03-22T12:20:25.375Z,99177.84
2019-03-22T12:22:54.896Z,99168.49
2019-03-22T12:25:26.451Z,99167.57
2019-03-22T12:27:55.929Z,99169.63
2019-03-22T12:30:25.519Z,99162.18
2019-03-22T12:32:54.993Z,99157.38
2019-03-22T12:35:24.471Z,99157.83
2019-03-22T12:37:53.969Z,99155.97
2019-03-22T12:40:24.012Z,99149.55
2019-03-22T12:42:53.477Z,99148.97
2019-03-22T12:45:26.455Z,99144.34
2019-03-22T12:47:56.164Z,99135.33
2019-03-22T12:50:26.647Z,99136.20
2019-03-22T12:52:56.145Z,99138.08
2019-03-22T12:55:25.701Z,99132.39
2019-03-22T12:57:55.171Z,99123.48
2019-03-22T13:00:26.176Z,99126.45
2019-03-22T13:02:57.180Z,99125.67
2019-03-22T13:05:26.678Z,99123.66
2019-03-22T13:07:56.217Z,99115.28
2019-03-22T13:10:28.279Z,99121.23
2019-03-22T13:12:58.013Z,99116.98
2019-03-22T13:15:27.516Z,99110.26
2019-03-22T13:17:57.069Z,99105.05
2019-03-22T13:20:26.543Z,99103.47
2019-03-22T13:22:56.315Z,99105.14
2019-03-22T13:25:25.811Z,99097.32
2019-03-22T13:27:55.306Z,99094.01
2019-03-22T13:30:34.069Z,99089.81
2019-03-22T13:33:03.807Z,99085.44
2019-03-22T13:35:33.353Z,99087.22
2019-03-22T13:38:04.152Z,99083.51
2019-03-22T13:40:33.701Z,99081.94
2019-03-22T13:43:03.248Z,99075.44
2019-03-22T13:45:32.743Z,99075.61
2019-03-22T13:48:02.244Z,99076.68
2019-03-22T13:50:31.725Z,99072.14
2019-03-22T13:53:01.190Z,99069.94
2019-03-22T13:55:30.769Z,99069.06
2019-03-22T13:58:00.248Z,99066.45
2019-03-22T14:00:29.738Z,99064.37
2019-03-22T14:03:03.223Z,99061.23
2019-03-22T14:05:30.516Z,99060.11
2019-03-22T14:08:00.015Z,99053.30
2019-03-22T14:10:31.795Z,99060.97
2019-03-22T14:13:03.950Z,99057.98
2019-03-22T14:15:33.478Z,99049.73
2019-03-22T14:18:03.046Z,99050.59
2019-03-22T14:20:32.613Z,99040.72
2019-03-22T14:23:02.106Z,99037.88
2019-03-22T14:25:31.609Z,99035.48
2019-03-22T14:28:01.092Z,99036.69
2019-03-22T14:30:30.606Z,99035.16
2019-03-22T14:33:00.210Z,99032.56
2019-03-22T14:35:29.667Z,99026.98
2019-03-22T14:37:59.159Z,99021.64
2019-03-22T14:40:28.637Z,99022.06
2019-03-22T14:42:58.134Z,99023.02
2019-03-22T14:45:27.615Z,99015.67
2019-03-22T14:47:57.099Z,99019.44
2019-03-22T14:50:26.678Z,99007.14
2019-03-22T14:52:56.440Z,99001.55
2019-03-22T14:55:25.946Z,99003.91
2019-03-22T14:57:55.438Z,99010.36
2019-03-22T15:00:24.924Z,99000.69
2019-03-22T15:02:54.471Z,99007.84
2019-03-22T15:05:23.968Z,99001.19
2019-03-22T15:07:53.473Z,98992.96
2019-03-22T15:10:22.971Z,98994.22
2019-03-22T15:12:52.777Z,98993.77
2019-03-22T15:15:22.040Z,98989.31
2019-03-22T15:18:07.963Z,98986.89
2019-03-22T15:20:45.680Z,98981.69
2019-03-22T15:23:25.852Z,98975.77
2019-03-22T15:26:10.003Z,98975.23
2019-03-22T15:28:44.829Z,98970.00
2019-03-22T15:31:26.031Z,98972.80
2019-03-22T15:33:57.258Z,98966.15
2019-03-22T15:36:41.287Z,98964.77
2019-03-22T15:39:12.616Z,98959.52
2019-03-22T15:41:42.124Z,98962.31
2019-03-22T15:44:11.817Z,98955.27
2019-03-22T15:46:41.380Z,98957.44
2019-03-22T15:49:10.863Z,98959.55
2019-03-22T15:51:40.482Z,98956.27
2019-03-22T15:54:09.963Z,98956.11
2019-03-22T15:56:39.500Z,98957.58
2019-03-22T15:59:08.993Z,98962.39
2019-03-22T16:01:38.476Z,98963.02
2019-03-22T16:04:08.180Z,98963.27
2019-03-22T16:06:37.693Z,98961.47
2019-03-22T16:09:08.887Z,98962.07
2019-03-22T16:11:38.368Z,98953.38
2019-03-22T16:14:07.864Z,98949.74
2019-03-22T16:16:37.419Z,98957.50
2019-03-22T16:19:06.978Z,98956.14
2019-03-22T16:21:36.579Z,98955.88
2019-03-22T16:24:06.035Z,98963.40
2019-03-22T16:26:35.580Z,98952.23
2019-03-22T16:29:05.094Z,98962.33
2019-03-22T16:31:34.550Z,98953.75
2019-03-22T16:34:04.049Z,98952.67
2019-03-22T16:36:33.535Z,98954.19
2019-03-22T16:39:03.017Z,98950.52
2019-03-22T16:41:32.521Z,98946.81
2019-03-22T16:44:02.030Z,98943.36
2019-03-22T16:46:31.521Z,98944.85
2019-03-22T16:49:01.008Z,98941.23
2019-03-22T16:51:30.561Z,98936.27
2019-03-22T16:54:00.054Z,98935.97
2019-03-22T16:56:29.539Z,98929.17
2019-03-22T16:58:59.027Z,98935.17
2019-03-22T17:01:28.532Z,98937.10
2019-03-22T17:04:04.442Z,98931.09
2019-03-22T17:06:29.317Z,98931.05
2019-03-22T17:09:00.351Z,98929.78
2019-03-22T17:11:29.980Z,98930.86
2019-03-22T17:13:59.484Z,98937.31
2019-03-22T17:16:28.994Z,98928.66
2019-03-22T17:18:58.429Z,98928.21
2019-03-22T17:21:27.932Z,98925.96
2019-03-22T17:23:57.405Z,98930.75
2019-03-22T17:26:26.960Z,98924.17
2019-03-22T17:28:56.461Z,98925.05
2019-03-22T17:31:25.985Z,98921.05
2019-03-22T17:33:55.505Z,98922.73
2019-03-22T17:36:24.981Z,98921.33
2019-03-22T17:38:54.454Z,98918.44
2019-03-22T17:41:24.032Z,98923.75
2019-03-22T17:43:53.598Z,98926.52
2019-03-22T17:46:23.084Z,98924.89
2019-03-22T17:48:52.577Z,98921.19
2019-03-22T17:51:22.135Z,98917.58
2019-03-22T17:53:51.611Z,98912.94
2019-03-22T17:56:21.104Z,98915.14
2019-03-22T17:58:50.605Z,98915.02
2019-03-22T18:01:21.043Z,98917.14
2019-03-22T18:03:50.541Z,98919.31
2019-03-22T18:06:20.104Z,98920.56
2019-03-22T18:08:49.594Z,98923.95
2019-03-22T18:11:19.089Z,98924.02
2019-03-22T18:13:48.566Z,98917.23
2019-03-22T18:16:18.066Z,98926.72
2019-03-22T18:18:47.536Z,98926.95
2019-03-22T18:21:17.029Z,98929.80
2019-03-22T18:23:46.518Z,98926.74
2019-03-22T18:26:16.023Z,98935.44
2019-03-22T18:28:45.533Z,98942.15
2019-03-22T18:31:15.003Z,98932.72
2019-03-22T18:33:44.501Z,98933.16
2019-03-22T18:36:14.001Z,98935.13
2019-03-22T18:38:43.464Z,98935.06
2019-03-22T18:41:14.799Z,98935.00
2019-03-22T18:43:44.271Z,98940.20
2019-03-22T18:46:13.780Z,98931.88
2019-03-22T18:48:43.272Z,98939.56
2019-03-22T18:51:12.759Z,98932.70
2019-03-22T18:53:42.571Z,98936.19
2019-03-22T18:56:12.079Z,98941.47
2019-03-22T18:58:41.582Z,98939.29
2019-03-22T19:01:11.075Z,98942.67
2019-03-22T19:03:40.589Z,98938.38
2019-03-22T19:06:10.066Z,98941.88
2019-03-22T19:08:39.602Z,98945.47
2019-03-22T19:11:09.112Z,98938.24
2019-03-22T19:13:38.579Z,98944.97
2019-03-22T19:16:08.072Z,98950.92
2019-03-22T19:18:37.563Z,98947.67
2019-03-22T19:21:07.048Z,98950.00
2019-03-22T19:23:36.551Z,98950.13
2019-03-22T19:26:06.040Z,98951.11
2019-03-22T19:28:35.530Z,98942.62
2019-03-22T19:31:05.031Z,98948.28
2019-03-22T19:33:34.524Z,98945.83
2019-03-22T19:36:04.778Z,98940.73
2019-03-22T19:38:34.281Z,98949.45
2019-03-22T19:41:03.757Z,98946.91
2019-03-22T19:43:33.236Z,98942.44
2019-03-22T19:46:02.739Z,98948.50
2019-03-22T19:48:32.237Z,98945.91
2019-03-22T19:51:01.715Z,98944.69
2019-03-22T19:53:31.202Z,98946.57
2019-03-22T19:56:00.699Z,98948.38
2019-03-22T19:58:30.170Z,98945.55
2019-03-22T20:00:59.689Z,98951.75
2019-03-22T20:03:29.167Z,98948.80
2019-03-22T20:05:58.641Z,98949.67
2019-03-22T20:08:28.136Z,98949.70
2019-03-22T20:10:57.640Z,98947.20
2019-03-22T20:13:27.109Z,98949.41
2019-03-22T20:15:56.611Z,98945.58
2019-03-22T20:18:26.083Z,98949.55
2019-03-22T20:20:55.575Z,98945.67
2019-03-22T20:23:25.341Z,98948.28
2019-03-22T20:25:54.822Z,98946.60
2019-03-22T20:28:24.568Z,98948.05
2019-03-22T20:30:54.068Z,98945.19
2019-03-22T20:33:23.565Z,98944.13
2019-03-22T20:35:53.044Z,98945.16
2019-03-22T20:38:22.520Z,98943.16
2019-03-22T20:40:52.082Z,98943.17
2019-03-22T20:43:21.550Z,98945.70
2019-03-22T20:45:51.093Z,98939.20
2019-03-22T20:48:20.583Z,98939.17
2019-03-22T20:50:50.056Z,98936.63
2019-03-22T20:53:19.554Z,98936.70
2019-03-22T20:55:49.020Z,98937.20
2019-03-22T20:58:18.524Z,98943.66
2019-03-22T21:00:48.002Z,98947.09
2019-03-22T21:03:17.484Z,98943.26
2019-03-22T21:05:47.015Z,98940.70
2019-03-22T21:08:16.445Z,98942.48
2019-03-22T21:10:45.922Z,98943.84
2019-03-22T21:13:15.416Z,98951.19
2019-03-22T21:15:44.911Z,98940.91
2019-03-22T21:18:14.390Z,98944.75
2019-03-22T21:20:43.864Z,98945.19
2019-03-22T21:23:13.364Z,98942.20
2019-03-22T21:25:42.850Z,98941.77
2019-03-22T21:28:12.370Z,98940.91
2019-03-22T21:30:41.825Z,98948.19
2019-03-22T21:33:11.299Z,98948.17
2019-03-22T21:35:40.807Z,98951.62
2019-03-22T21:38:11.269Z,98946.04
2019-03-22T21:40:40.835Z,98944.75
2019-03-22T21:43:10.323Z,98946.48
2019-03-22T21:45:39.810Z,98937.05
2019-03-22T21:48:09.273Z,98946.48
2019-03-22T21:50:38.771Z,98939.19
2019-03-22T21:53:08.241Z,98940.89
2019-03-22T21:55:37.825Z,98939.19
2019-03-22T21:58:07.297Z,98945.17
2019-03-22T22:00:36.834Z,98948.14
2019-03-22T22:03:06.328Z,98945.11
2019-03-22T22:05:35.803Z,98949.40
2019-03-22T22:08:05.353Z,98946.80
2019-03-22T22:10:34.853Z,98947.94
2019-03-22T22:13:04.363Z,98950.85
2019-03-22T22:15:33.837Z,98954.31
2019-03-22T22:18:03.332Z,98947.03
2019-03-22T22:20:32.802Z,98942.34
2019-03-22T22:23:02.570Z,98940.56
2019-03-22T22:25:32.111Z,98941.02
2019-03-22T22:28:01.583Z,98941.89
2019-03-22T22:30:31.083Z,98936.73
2019-03-22T22:33:00.574Z,98939.73
2019-03-22T22:35:30.149Z,98937.61
2019-03-22T22:37:59.621Z,98932.45
2019-03-22T22:40:29.099Z,98930.28
2019-03-22T22:42:58.597Z,98932.40
2019-03-22T22:45:28.104Z,98932.31
2019-03-22T22:47:57.612Z,98930.14
2019-03-22T22:50:27.122Z,98925.81
2019-03-22T22:52:56.605Z,98920.56
2019-03-22T22:55:26.082Z,98916.13
2019-03-22T22:57:55.588Z,98920.41
2019-03-22T23:00:26.939Z,98918.27
2019-03-22T23:02:56.424Z,98915.70
2019-03-22T23:05:25.987Z,98909.23
2019-03-22T23:07:55.452Z,98909.20
2019-03-22T23:10:24.943Z,98907.89
2019-03-22T23:12:54.414Z,98907.89
2019-03-22T23:15:23.892Z,98901.05
2019-03-22T23:17:53.394Z,98904.88
2019-03-22T23:20:22.875Z,98901.82
2019-03-22T23:22:52.341Z,98903.07
2019-03-22T23:25:21.845Z,98909.51
2019-03-22T23:27:51.313Z,98912.95
2019-03-22T23:30:20.817Z,98912.56
2019-03-22T23:32:50.286Z,98905.70
2019-03-22T23:35:19.756Z,98910.39
2019-03-22T23:37:49.513Z,98907.41
2019-03-22T23:40:18.986Z,98911.70
2019-03-22T23:42:48.525Z,98907.01
2019-03-22T23:45:18.026Z,98907.01
2019-03-22T23:47:47.493Z,98902.70
2019-03-22T23:50:17.042Z,98903.56
2019-03-22T23:52:46.544Z,98901.30
2019-03-22T23:55:16.003Z,98890.59
2019-03-22T23:57:45.497Z,98894.76
